createdAt,value
2018-07-22T00:02:25.100Z,32.80
2018-07-22T00:04:53.587Z,33.13
2018-07-22T00:07:22.116Z,33.70
2018-07-22T00:09:50.619Z,29.57
2018-07-22T00:12:19.103Z,30.07
2018-07-22T00:14:47.621Z,34.73
2018-07-22T00:17:16.111Z,29.77
2018-07-22T00:19:44.595Z,29.40
2018-07-22T00:22:13.047Z,32.30
2018-07-22T00:24:41.518Z,27.47
2018-07-22T00:27:10.148Z,32.43
2018-07-22T00:29:38.599Z,28.10
2018-07-22T00:32:07.125Z,29.63
2018-07-22T00:34:35.571Z,32.07
2018-07-22T00:37:04.072Z,31.97
2018-07-22T00:39:32.520Z,34.73
2018-07-22T00:42:01.035Z,32.90
2018-07-22T00:44:29.492Z,31.90
2018-07-22T00:46:57.971Z,36.57
2018-07-22T00:49:26.169Z,33.47
2018-07-22T00:51:55.008Z,30.20
2018-07-22T00:54:23.509Z,36.37
2018-07-22T00:56:52.049Z,30.80
2018-07-22T00:59:20.615Z,28.43
2018-07-22T01:01:49.107Z,26.57
2018-07-22T01:04:17.542Z,28.67
2018-07-22T01:06:46.053Z,27.40
2018-07-22T01:09:14.528Z,27.50
2018-07-22T01:11:43.014Z,25.80
2018-07-22T01:14:11.508Z,24.13
2018-07-22T01:16:40.383Z,25.27
2018-07-22T01:19:08.832Z,22.73
2018-07-22T01:21:37.319Z,20.57
2018-07-22T01:24:05.784Z,23.07
2018-07-22T01:26:34.304Z,20.93
2018-07-22T01:29:03.501Z,24.30
2018-07-22T01:31:32.411Z,21.23
2018-07-22T01:34:00.922Z,18.10
2018-07-22T01:36:29.372Z,20.07
2018-07-22T01:38:57.928Z,20.67
2018-07-22T01:41:26.367Z,20.23
2018-07-22T01:43:54.890Z,19.30
2018-07-22T01:46:23.324Z,20.87
2018-07-22T01:48:51.828Z,18.10
2018-07-22T01:51:20.270Z,18.87
2018-07-22T01:53:48.760Z,20.87
2018-07-22T01:56:17.196Z,19.00
2018-07-22T01:58:45.700Z,19.23
2018-07-22T02:01:14.176Z,21.33
2018-07-22T02:03:42.682Z,21.70
2018-07-22T02:06:11.131Z,24.13
2018-07-22T02:08:39.602Z,26.50
2018-07-22T02:11:08.398Z,25.97
2018-07-22T02:13:36.872Z,26.37
2018-07-22T02:16:05.360Z,25.47
2018-07-22T02:18:33.856Z,24.90
2018-07-22T02:21:02.307Z,25.30
2018-07-22T02:23:30.784Z,26.50
2018-07-22T02:25:59.213Z,26.63
2018-07-22T02:28:27.704Z,28.87
2018-07-22T02:30:56.511Z,26.60
2018-07-22T02:33:25.063Z,26.00
2018-07-22T02:35:53.538Z,26.13
2018-07-22T02:38:22.041Z,28.90
2018-07-22T02:40:50.616Z,24.33
2018-07-22T02:43:19.151Z,25.50
2018-07-22T02:45:47.625Z,24.73
2018-07-22T02:48:16.061Z,31.53
2018-07-22T02:50:44.600Z,30.77
2018-07-22T02:53:13.911Z,26.37
2018-07-22T02:55:42.387Z,28.10
2018-07-22T02:58:10.862Z,22.80
2018-07-22T03:00:39.299Z,24.30
2018-07-22T03:03:07.817Z,26.07
2018-07-22T03:05:36.323Z,26.13
2018-07-22T03:08:05.282Z,23.27
2018-07-22T03:10:33.762Z,23.50
2018-07-22T03:13:02.240Z,24.60
2018-07-22T03:15:30.734Z,27.07
2018-07-22T03:17:59.227Z,22.70
2018-07-22T03:20:27.775Z,23.67
2018-07-22T03:22:56.219Z,28.57
2018-07-22T03:25:24.708Z,24.93
2018-07-22T03:27:53.149Z,23.40
2018-07-22T03:30:21.614Z,25.53
2018-07-22T03:32:50.099Z,20.93
2018-07-22T03:35:18.574Z,24.50
2018-07-22T03:37:47.002Z,23.83
2018-07-22T03:40:15.207Z,25.90
2018-07-22T03:42:43.652Z,21.80
2018-07-22T03:45:12.130Z,22.57
2018-07-22T03:47:40.559Z,24.40
2018-07-22T03:50:09.059Z,24.00
2018-07-22T03:52:37.540Z,25.67
2018-07-22T03:55:06.056Z,22.70
2018-07-22T03:57:34.487Z,22.43
2018-07-22T04:00:03.032Z,26.37
2018-07-22T04:02:31.514Z,22.83
2018-07-22T04:05:00.356Z,24.70
2018-07-22T04:07:28.938Z,25.90
2018-07-22T04:09:57.477Z,24.33
2018-07-22T04:12:25.948Z,24.83
2018-07-22T04:14:54.407Z,24.87
2018-07-22T04:17:22.907Z,22.83
2018-07-22T04:19:51.379Z,24.37
2018-07-22T04:22:19.878Z,22.80
2018-07-22T04:24:48.395Z,24.13
2018-07-22T04:27:16.883Z,21.00
2018-07-22T04:29:45.336Z,18.30
2018-07-22T04:32:13.841Z,20.47
2018-07-22T04:34:42.351Z,18.27
2018-07-22T04:37:10.844Z,18.60
2018-07-22T04:39:39.303Z,19.63
2018-07-22T04:42:07.915Z,18.87
2018-07-22T04:44:36.385Z,18.47
2018-07-22T04:47:04.835Z,18.90
2018-07-22T04:49:33.335Z,18.83
2018-07-22T04:52:02.165Z,17.53
2018-07-22T04:54:30.664Z,16.70
2018-07-22T04:56:59.124Z,16.50
2018-07-22T04:59:27.595Z,16.80
2018-07-22T05:01:56.030Z,17.23
2018-07-22T05:04:24.557Z,16.33
2018-07-22T05:06:52.991Z,14.07
2018-07-22T05:09:21.491Z,17.93
2018-07-22T05:11:49.955Z,17.17
2018-07-22T05:14:18.450Z,15.83
2018-07-22T05:16:46.920Z,15.23
2018-07-22T05:19:15.391Z,14.50
2018-07-22T05:21:43.811Z,14.83
2018-07-22T05:24:12.289Z,15.57
2018-07-22T05:26:40.715Z,17.87
2018-07-22T05:29:09.196Z,16.20
2018-07-22T05:31:37.635Z,16.27
2018-07-22T05:34:06.331Z,15.50
2018-07-22T05:36:34.768Z,16.47
2018-07-22T05:39:03.452Z,16.47
2018-07-22T05:41:31.890Z,16.60
2018-07-22T05:44:00.738Z,14.83
2018-07-22T05:46:29.199Z,16.00
2018-07-22T05:48:57.651Z,15.03
2018-07-22T05:51:26.129Z,15.37
2018-07-22T05:53:54.578Z,13.97
2018-07-22T05:56:23.080Z,14.53
2018-07-22T05:58:51.533Z,14.47
2018-07-22T06:01:20.006Z,12.53
2018-07-22T06:03:48.781Z,12.57
2018-07-22T06:06:17.303Z,13.43
2018-07-22T06:08:45.739Z,13.23
2018-07-22T06:11:14.348Z,13.10
2018-07-22T06:13:42.803Z,11.40
2018-07-22T06:16:11.319Z,14.40
2018-07-22T06:18:39.742Z,12.00
2018-07-22T06:21:08.226Z,13.37
2018-07-22T06:23:36.676Z,13.07
2018-07-22T06:26:05.372Z,12.63
2018-07-22T06:28:33.819Z,13.23
2018-07-22T06:31:02.602Z,15.10
2018-07-22T06:33:31.120Z,12.77
2018-07-22T06:35:59.558Z,13.83
2018-07-22T06:38:28.081Z,14.03
2018-07-22T06:40:56.543Z,13.33
2018-07-22T06:43:25.264Z,12.90
2018-07-22T06:45:53.824Z,14.17
2018-07-22T06:48:22.303Z,12.80
2018-07-22T06:50:51.135Z,14.83
2018-07-22T06:53:19.620Z,14.23
2018-07-22T06:55:48.460Z,13.73
2018-07-22T06:58:16.937Z,13.93
2018-07-22T07:00:45.428Z,14.50
2018-07-22T07:03:14.060Z,14.30
2018-07-22T07:05:42.508Z,12.93
2018-07-22T07:08:11.003Z,14.83
2018-07-22T07:10:39.467Z,15.17
2018-07-22T07:13:07.902Z,15.30
2018-07-22T07:15:36.383Z,15.23
2018-07-22T07:18:04.862Z,15.43
2018-07-22T07:20:33.351Z,16.27
2018-07-22T07:23:01.828Z,15.93
2018-07-22T07:25:30.302Z,16.93
2018-07-22T07:27:58.799Z,15.53
2018-07-22T07:30:27.315Z,15.43
2018-07-22T07:32:55.771Z,16.07
2018-07-22T07:35:24.283Z,16.73
2018-07-22T07:37:52.760Z,16.93
2018-07-22T07:40:21.235Z,17.73
2018-07-22T07:42:49.361Z,16.53
2018-07-22T07:45:17.863Z,18.03
2018-07-22T07:47:46.354Z,18.00
2018-07-22T07:50:14.521Z,17.50
2018-07-22T07:52:42.945Z,16.87
2018-07-22T07:55:11.651Z,16.07
2018-07-22T07:57:40.112Z,14.40
2018-07-22T08:00:08.648Z,18.00
2018-07-22T08:02:37.071Z,15.83
2018-07-22T08:05:05.567Z,16.57
2018-07-22T08:07:35.265Z,18.07
2018-07-22T08:10:03.996Z,18.87
2018-07-22T08:12:32.793Z,16.43
2018-07-22T08:15:01.315Z,17.27
2018-07-22T08:17:30.147Z,17.67
2018-07-22T08:19:58.634Z,17.03
2018-07-22T08:22:27.107Z,17.43
2018-07-22T08:24:55.694Z,17.60
2018-07-22T08:27:24.175Z,19.57
2018-07-22T08:29:52.698Z,20.53
2018-07-22T08:32:21.184Z,20.47
2018-07-22T08:34:49.682Z,19.47
2018-07-22T08:37:18.128Z,19.27
2018-07-22T08:39:46.626Z,19.13
2018-07-22T08:42:16.724Z,20.13
2018-07-22T08:44:45.198Z,19.87
2018-07-22T08:47:13.663Z,18.37
2018-07-22T08:49:42.131Z,20.63
2018-07-22T08:52:10.599Z,22.10
2018-07-22T08:54:39.088Z,19.33
2018-07-22T08:57:07.526Z,21.47
2018-07-22T08:59:36.093Z,21.60
2018-07-22T09:02:05.127Z,21.33
2018-07-22T09:04:33.954Z,19.87
2018-07-22T09:07:02.143Z,20.97
2018-07-22T09:09:30.615Z,21.93
2018-07-22T09:11:58.756Z,20.73
2018-07-22T09:14:27.238Z,21.40
2018-07-22T09:16:56.030Z,22.10
2018-07-22T09:19:24.498Z,20.73
2018-07-22T09:21:52.966Z,22.10
2018-07-22T09:24:21.465Z,21.57
2018-07-22T09:26:49.939Z,23.33
2018-07-22T09:29:18.416Z,23.23
2018-07-22T09:31:46.902Z,22.33
2018-07-22T09:34:15.381Z,23.33
2018-07-22T09:36:43.855Z,22.53
2018-07-22T09:39:12.499Z,24.33
2018-07-22T09:41:41.035Z,21.40
2018-07-22T09:44:09.547Z,23.23
2018-07-22T09:46:38.037Z,23.10
2018-07-22T09:49:06.839Z,23.60
2018-07-22T09:51:35.319Z,21.93
2018-07-22T09:54:03.826Z,22.73
2018-07-22T09:56:32.325Z,22.37
2018-07-22T09:59:00.775Z,22.70
2018-07-22T10:01:29.304Z,20.67
2018-07-22T10:03:57.751Z,19.63
2018-07-22T10:06:26.568Z,19.77
2018-07-22T10:08:55.027Z,20.93
2018-07-22T10:11:23.860Z,20.97
2018-07-22T10:13:52.294Z,21.07
2018-07-22T10:16:20.774Z,22.07
2018-07-22T10:18:49.216Z,21.87
2018-07-22T10:21:17.690Z,21.93
2018-07-22T10:23:46.125Z,20.43
2018-07-22T10:26:14.590Z,21.07
2018-07-22T10:28:43.121Z,17.37
2018-07-22T10:31:11.755Z,20.97
2018-07-22T10:33:40.197Z,20.83
2018-07-22T10:36:08.696Z,19.67
2018-07-22T10:38:37.139Z,18.73
2018-07-22T10:41:05.640Z,20.67
2018-07-22T10:43:34.080Z,21.30
2018-07-22T10:46:02.601Z,20.00
2018-07-22T10:48:31.911Z,21.23
2018-07-22T10:51:00.522Z,21.13
2018-07-22T10:53:29.169Z,20.17
2018-07-22T10:55:57.883Z,19.90
2018-07-22T10:58:26.338Z,20.93
2018-07-22T11:00:54.800Z,20.83
2018-07-22T11:03:23.345Z,20.70
2018-07-22T11:05:51.990Z,18.83
2018-07-22T11:08:20.516Z,20.00
2018-07-22T11:10:49.317Z,19.43
2018-07-22T11:13:18.168Z,18.20
2018-07-22T11:15:46.991Z,17.27
2018-07-22T11:18:15.499Z,17.97
2018-07-22T11:20:43.961Z,18.07
2018-07-22T11:23:12.435Z,16.90
2018-07-22T11:25:40.893Z,20.23
2018-07-22T11:28:09.375Z,18.87
2018-07-22T11:30:37.859Z,17.07
2018-07-22T11:33:06.344Z,17.63
2018-07-22T11:35:34.795Z,17.87
2018-07-22T11:38:03.298Z,17.77
2018-07-22T11:40:31.752Z,18.50
2018-07-22T11:43:00.247Z,18.40
2018-07-22T11:45:28.679Z,18.57
2018-07-22T11:47:57.147Z,19.97
2018-07-22T11:50:25.646Z,18.97
2018-07-22T11:52:54.291Z,16.67
2018-07-22T11:55:22.426Z,16.43
2018-07-22T11:57:50.909Z,18.17
2018-07-22T12:00:19.338Z,17.70
2018-07-22T12:02:47.815Z,17.80
2018-07-22T12:05:16.243Z,17.83
2018-07-22T12:07:44.855Z,17.17
2018-07-22T12:10:13.402Z,16.93
2018-07-22T12:12:41.851Z,20.37
2018-07-22T12:15:10.339Z,15.90
2018-07-22T12:17:38.834Z,15.63
2018-07-22T12:20:07.643Z,16.27
2018-07-22T12:22:36.136Z,16.37
2018-07-22T12:25:04.688Z,16.43
2018-07-22T12:27:33.153Z,17.03
2018-07-22T12:30:01.664Z,16.33
2018-07-22T12:32:30.119Z,15.50
2018-07-22T12:34:58.583Z,15.90
2018-07-22T12:37:27.039Z,16.00
2018-07-22T12:39:55.590Z,15.23
2018-07-22T12:42:24.075Z,14.87
2018-07-22T12:44:52.705Z,15.23
2018-07-22T12:47:21.252Z,16.70
2018-07-22T12:49:49.747Z,15.70
2018-07-22T12:52:18.229Z,15.27
2018-07-22T12:54:46.717Z,14.70
2018-07-22T12:57:15.183Z,15.73
2018-07-22T12:59:43.672Z,14.80
2018-07-22T13:02:12.134Z,14.83
2018-07-22T13:04:40.613Z,14.10
2018-07-22T13:07:09.079Z,14.63
2018-07-22T13:09:37.578Z,16.03
2018-07-22T13:12:06.039Z,14.60
2018-07-22T13:14:34.532Z,15.13
2018-07-22T13:17:02.972Z,13.83
2018-07-22T13:19:31.413Z,13.90
2018-07-22T13:21:59.899Z,13.83
2018-07-22T13:24:28.364Z,14.70
2018-07-22T13:26:56.852Z,15.43
2018-07-22T13:29:25.358Z,13.70
2018-07-22T13:31:53.843Z,15.50
2018-07-22T13:34:22.330Z,14.03
2018-07-22T13:36:50.779Z,13.50
2018-07-22T13:39:19.251Z,14.23
2018-07-22T13:41:47.691Z,14.13
2018-07-22T13:44:16.160Z,14.80
2018-07-22T13:46:44.951Z,14.00
2018-07-22T13:49:13.386Z,15.33
2018-07-22T13:51:41.867Z,14.73
2018-07-22T13:54:10.330Z,13.37
2018-07-22T13:56:38.799Z,13.57
2018-07-22T13:59:07.385Z,13.67
2018-07-22T14:01:35.830Z,13.23
2018-07-22T14:04:04.625Z,14.83
2018-07-22T14:06:33.147Z,14.23
2018-07-22T14:09:01.596Z,12.90
2018-07-22T14:11:30.064Z,12.83
2018-07-22T14:13:58.824Z,13.00
2018-07-22T14:16:27.696Z,13.23
2018-07-22T14:18:56.138Z,12.67
2018-07-22T14:21:24.657Z,13.77
2018-07-22T14:23:53.141Z,13.23
2018-07-22T14:26:22.031Z,15.87
2018-07-22T14:28:50.539Z,12.03
2018-07-22T14:31:19.196Z,13.37
2018-07-22T14:33:47.674Z,13.17
2018-07-22T14:36:16.209Z,13.27
2018-07-22T14:38:44.768Z,12.47
2018-07-22T14:41:13.263Z,13.37
2018-07-22T14:43:41.735Z,13.27
2018-07-22T14:46:10.347Z,14.27
2018-07-22T14:48:38.792Z,12.77
2018-07-22T14:51:07.398Z,12.13
2018-07-22T14:53:35.901Z,12.23
2018-07-22T14:56:04.712Z,12.47
2018-07-22T14:58:33.199Z,12.43
2018-07-22T15:01:01.683Z,12.07
2018-07-22T15:03:30.495Z,13.07
2018-07-22T15:05:58.965Z,12.83
2018-07-22T15:08:27.467Z,12.37
2018-07-22T15:10:56.011Z,12.13
2018-07-22T15:13:24.641Z,12.50
2018-07-22T15:15:53.122Z,12.70
2018-07-22T15:18:21.699Z,12.10
2018-07-22T15:20:50.302Z,15.57
2018-07-22T15:23:19.010Z,13.65
2018-07-22T15:25:47.881Z,12.67
2018-07-22T15:28:16.411Z,11.77
2018-07-22T15:30:44.855Z,12.07
2018-07-22T15:33:13.385Z,13.53
2018-07-22T15:35:41.938Z,13.57
2018-07-22T15:38:10.801Z,12.83
2018-07-22T15:40:39.612Z,12.87
2018-07-22T15:43:08.139Z,13.00
2018-07-22T15:45:36.731Z,12.87
2018-07-22T15:48:05.784Z,13.70
2018-07-22T15:50:34.235Z,13.03
2018-07-22T15:53:02.727Z,13.03
2018-07-22T15:55:31.380Z,12.23
2018-07-22T15:57:59.855Z,12.73
2018-07-22T16:00:28.360Z,13.90
2018-07-22T16:02:56.850Z,13.37
2018-07-22T16:05:25.994Z,13.07
2018-07-22T16:07:54.487Z,13.20
2018-07-22T16:10:22.949Z,13.70
2018-07-22T16:12:51.608Z,12.53
2018-07-22T16:15:20.451Z,12.57
2018-07-22T16:17:48.927Z,13.40
2018-07-22T16:20:17.358Z,12.83
2018-07-22T16:22:45.906Z,12.97
2018-07-22T16:25:14.668Z,14.83
2018-07-22T16:27:43.207Z,12.23
2018-07-22T16:30:11.652Z,13.87
2018-07-22T16:32:40.126Z,12.13
2018-07-22T16:35:08.602Z,13.73
2018-07-22T16:37:37.674Z,13.37
2018-07-22T16:40:06.496Z,12.93
2018-07-22T16:42:35.031Z,13.70
2018-07-22T16:45:03.874Z,12.10
2018-07-22T16:47:32.954Z,13.53
2018-07-22T16:50:01.449Z,12.83
2018-07-22T16:52:29.934Z,13.53
2018-07-22T16:54:58.381Z,13.63
2018-07-22T16:57:26.986Z,13.10
2018-07-22T16:59:55.568Z,12.90
2018-07-22T17:02:24.038Z,13.30
2018-07-22T17:04:52.472Z,12.60
2018-07-22T17:07:21.003Z,12.80
2018-07-22T17:09:49.616Z,12.50
2018-07-22T17:12:18.055Z,12.60
2018-07-22T17:14:46.535Z,12.83
2018-07-22T17:17:15.010Z,14.00
2018-07-22T17:19:43.462Z,13.03
2018-07-22T17:22:11.922Z,13.10
2018-07-22T17:24:40.415Z,13.37
2018-07-22T17:27:09.026Z,13.30
2018-07-22T17:29:37.491Z,13.27
2018-07-22T17:32:06.235Z,13.30
2018-07-22T17:34:34.934Z,13.63
2018-07-22T17:37:03.591Z,13.80
2018-07-22T17:39:32.087Z,14.33
2018-07-22T17:42:00.667Z,14.60
2018-07-22T17:44:29.294Z,14.60
2018-07-22T17:46:58.771Z,13.40
2018-07-22T17:49:27.406Z,16.33
2018-07-22T17:51:55.873Z,14.73
2018-07-22T17:54:24.424Z,14.20
2018-07-22T17:56:52.915Z,14.27
2018-07-22T17:59:21.395Z,15.80
2018-07-22T18:01:49.861Z,13.57
2018-07-22T18:04:18.328Z,14.60
2018-07-22T18:06:46.925Z,14.20
2018-07-22T18:09:15.445Z,15.60
2018-07-22T18:11:43.899Z,14.20
2018-07-22T18:14:12.440Z,14.77
2018-07-22T18:16:41.347Z,16.30
2018-07-22T18:19:11.010Z,15.40
2018-07-22T18:21:39.823Z,14.63
2018-07-22T18:24:08.912Z,14.63
2018-07-22T18:26:37.458Z,14.30
2018-07-22T18:29:06.439Z,14.70
2018-07-22T18:31:35.674Z,16.20
2018-07-22T18:34:04.502Z,15.37
2018-07-22T18:36:33.363Z,15.00
2018-07-22T18:39:03.029Z,16.93
2018-07-22T18:41:32.362Z,15.87
2018-07-22T18:44:00.878Z,14.77
2018-07-22T18:46:29.529Z,15.53
2018-07-22T18:48:58.289Z,14.97
2018-07-22T18:51:26.860Z,16.17
2018-07-22T18:53:55.359Z,15.33
2018-07-22T18:56:23.814Z,16.57
2018-07-22T18:58:52.390Z,14.53
2018-07-22T19:01:21.216Z,14.80
2018-07-22T19:03:49.678Z,14.87
2018-07-22T19:06:18.387Z,16.33
2018-07-22T19:08:47.155Z,15.73
2018-07-22T19:11:16.397Z,15.30
2018-07-22T19:13:44.840Z,17.17
2018-07-22T19:16:13.551Z,16.17
2018-07-22T19:18:42.152Z,15.60
2018-07-22T19:21:10.831Z,16.07
2018-07-22T19:23:39.774Z,16.00
2018-07-22T19:26:08.438Z,16.23
2018-07-22T19:28:37.365Z,16.17
2018-07-22T19:31:06.068Z,16.97
2018-07-22T19:33:34.969Z,18.37
2018-07-22T19:36:03.590Z,17.53
2018-07-22T19:38:32.150Z,17.93
2018-07-22T19:41:01.169Z,16.87
2018-07-22T19:43:29.696Z,17.60
2018-07-22T19:45:58.196Z,16.50
2018-07-22T19:48:26.673Z,17.73
2018-07-22T19:50:55.260Z,18.03
2018-07-22T19:53:24.282Z,16.77
2018-07-22T19:55:52.762Z,17.27
2018-07-22T19:58:21.821Z,15.40
2018-07-22T20:00:51.539Z,16.87
2018-07-22T20:03:20.029Z,18.07
2018-07-22T20:05:48.843Z,18.83
2018-07-22T20:08:17.679Z,19.67
2018-07-22T20:10:46.461Z,18.67
2018-07-22T20:13:15.125Z,19.37
2018-07-22T20:15:43.735Z,19.40
2018-07-22T20:18:12.887Z,18.73
2018-07-22T20:20:41.796Z,18.83
2018-07-22T20:23:10.529Z,18.07
2018-07-22T20:25:39.200Z,16.73
2018-07-22T20:28:07.843Z,18.87
2018-07-22T20:30:36.404Z,18.40
2018-07-22T20:33:04.915Z,17.27
2018-07-22T20:35:33.784Z,17.67
2018-07-22T20:38:04.931Z,19.73
2018-07-22T20:40:33.479Z,19.93
2018-07-22T20:43:01.946Z,20.10
2018-07-22T20:45:30.418Z,19.53
2018-07-22T20:47:58.846Z,19.00
2018-07-22T20:50:27.347Z,19.70
2018-07-22T20:52:55.780Z,18.23
2018-07-22T20:55:24.337Z,19.37
2018-07-22T20:57:52.787Z,20.27
2018-07-22T21:00:21.272Z,21.93
2018-07-22T21:02:49.706Z,18.97
2018-07-22T21:05:18.200Z,20.43
2018-07-22T21:07:46.639Z,20.13
2018-07-22T21:10:15.248Z,20.57
2018-07-22T21:12:55.778Z,20.20
2018-07-22T21:15:24.306Z,19.70
2018-07-22T21:17:53.009Z,20.37
2018-07-22T21:20:22.079Z,21.67
2018-07-22T21:22:50.563Z,20.53
2018-07-22T21:25:19.462Z,23.10
2018-07-22T21:27:48.022Z,22.30
2018-07-22T21:30:16.596Z,21.03
2018-07-22T21:32:45.451Z,19.43
2018-07-22T21:35:13.958Z,20.27
2018-07-22T21:37:42.835Z,20.33
2018-07-22T21:40:11.291Z,21.97
2018-07-22T21:42:39.782Z,23.13
2018-07-22T21:45:08.878Z,20.90
2018-07-22T21:47:37.492Z,21.60
2018-07-22T21:50:06.456Z,21.07
2018-07-22T21:52:34.991Z,22.63
2018-07-22T21:55:03.554Z,20.33
2018-07-22T21:57:32.047Z,20.97
2018-07-22T22:00:00.527Z,21.67
2018-07-22T22:02:32.270Z,22.03
2018-07-22T22:05:02.870Z,21.33
2018-07-22T22:07:31.841Z,19.83
2018-07-22T22:10:00.984Z,22.10
2018-07-22T22:12:29.980Z,21.73
2018-07-22T22:14:58.458Z,23.57
2018-07-22T22:17:26.949Z,20.90
2018-07-22T22:19:55.423Z,22.27
2018-07-22T22:22:23.952Z,21.53
2018-07-22T22:24:52.795Z,22.07
2018-07-22T22:27:21.340Z,20.43
2018-07-22T22:29:49.518Z,22.77
2018-07-22T22:32:18.173Z,22.93
2018-07-22T22:34:46.624Z,21.63
2018-07-22T22:37:15.076Z,21.93
2018-07-22T22:39:43.915Z,21.97
2018-07-22T22:42:12.429Z,24.23
2018-07-22T22:44:40.570Z,24.90
2018-07-22T22:47:09.007Z,24.83
2018-07-22T22:49:37.477Z,23.63
2018-07-22T22:52:06.353Z,24.13
2018-07-22T22:54:34.509Z,21.67
2018-07-22T22:57:02.991Z,23.57
2018-07-22T22:59:31.471Z,24.53
2018-07-22T23:01:59.985Z,22.87
2018-07-22T23:04:28.865Z,23.17
2018-07-22T23:06:57.326Z,24.10
2018-07-22T23:09:25.848Z,22.97
2018-07-22T23:11:54.311Z,24.93
2018-07-22T23:14:22.820Z,23.87
2018-07-22T23:16:51.618Z,23.70
2018-07-22T23:19:20.115Z,23.13
2018-07-22T23:21:48.594Z,26.07
2018-07-22T23:24:17.134Z,26.47
2018-07-22T23:26:45.613Z,24.70
2018-07-22T23:29:14.447Z,26.77
2018-07-22T23:31:42.964Z,25.70
2018-07-22T23:34:11.814Z,28.03
2018-07-22T23:36:40.299Z,22.63
2018-07-22T23:39:09.659Z,23.17
2018-07-22T23:41:38.125Z,24.03
2018-07-22T23:44:08.002Z,24.20
2018-07-22T23:46:37.315Z,23.73
2018-07-22T23:49:06.070Z,24.17
2018-07-22T23:51:34.567Z,25.50
2018-07-22T23:54:03.045Z,28.33
2018-07-22T23:56:31.550Z,28.03
2018-07-22T23:59:00.059Z,25.53
